sensor_id;sensor_type;location;lat;lon;timestamp;P1;durP1;ratioP1;P2;durP2;ratioP2
49450;SDS011;35336;48.400;10.886;2022-08-03T00:00:13;2.87;;;1.90;;
49450;SDS011;35336;48.400;10.886;2022-08-03T00:00:29;2.80;;;1.70;;
49450;SDS011;35336;48.400;10.886;2022-08-03T00:00:45;2.73;;;1.50;;
49450;SDS011;35336;48.400;10.886;2022-08-03T00:01:00;2.90;;;1.50;;
49450;SDS011;35336;48.400;10.886;2022-08-03T00:01:16;2.77;;;1.53;;
49450;SDS011;35336;48.400;10.886;2022-08-03T00:01:32;2.80;;;1.65;;
49450;SDS011;35336;48.400;10.886;2022-08-03T00:01:48;2.10;;;1.67;;
49450;SDS011;35336;48.400;10.886;2022-08-03T00:02:04;2.53;;;1.63;;
49450;SDS011;35336;48.400;10.886;2022-08-03T00:02:19;5.45;;;1.70;;
49450;SDS011;35336;48.400;10.886;2022-08-03T00:02:35;5.80;;;1.70;;
49450;SDS011;35336;48.400;10.886;2022-08-03T00:02:50;3.70;;;1.50;;
49450;SDS011;35336;48.400;10.886;2022-08-03T00:03:05;3.60;;;1.60;;
49450;SDS011;35336;48.400;10.886;2022-08-03T00:03:21;3.63;;;1.52;;
49450;SDS011;35336;48.400;10.886;2022-08-03T00:03:37;4.97;;;1.70;;
49450;SDS011;35336;48.400;10.886;2022-08-03T00:03:52;5.47;;;1.98;;
49450;SDS011;35336;48.400;10.886;2022-08-03T00:04:08;6.47;;;2.00;;
49450;SDS011;35336;48.400;10.886;2022-08-03T00:04:25;4.45;;;1.80;;
49450;SDS011;35336;48.400;10.886;2022-08-03T00:04:40;2.40;;;1.67;;
49450;SDS011;35336;48.400;10.886;2022-08-03T00:04:56;4.03;;;1.63;;
49450;SDS011;35336;48.400;10.886;2022-08-03T00:05:11;3.50;;;1.58;;
49450;SDS011;35336;48.400;10.886;2022-08-03T00:05:27;3.87;;;1.70;;
49450;SDS011;35336;48.400;10.886;2022-08-03T00:05:42;4.15;;;1.90;;
49450;SDS011;35336;48.400;10.886;2022-08-03T00:05:58;3.60;;;1.77;;
49450;SDS011;35336;48.400;10.886;2022-08-03T00:06:13;3.10;;;1.70;;
49450;SDS011;35336;48.400;10.886;2022-08-03T00:06:29;1.90;;;1.63;;
49450;SDS011;35336;48.400;10.886;2022-08-03T00:06:44;4.10;;;1.70;;
49450;SDS011;35336;48.400;10.886;2022-08-03T00:06:59;5.40;;;1.70;;
49450;SDS011;35336;48.400;10.886;2022-08-03T00:07:15;3.57;;;1.70;;
49450;SDS011;35336;48.400;10.886;2022-08-03T00:07:30;6.88;;;1.70;;
49450;SDS011;35336;48.400;10.886;2022-08-03T00:07:46;6.93;;;1.60;;
49450;SDS011;35336;48.400;10.886;2022-08-03T00:08:01;6.17;;;1.70;;
49450;SDS011;35336;48.400;10.886;2022-08-03T00:08:17;5.80;;;1.70;;
49450;SDS011;35336;48.400;10.886;2022-08-03T00:08:32;2.85;;;1.60;;
49450;SDS011;35336;48.400;10.886;2022-08-03T00:08:48;3.00;;;1.60;;
49450;SDS011;35336;48.400;10.886;2022-08-03T00:09:04;2.92;;;1.58;;
49450;SDS011;35336;48.400;10.886;2022-08-03T00:09:20;2.40;;;1.58;;
49450;SDS011;35336;48.400;10.886;2022-08-03T00:09:36;2.00;;;1.57;;
49450;SDS011;35336;48.400;10.886;2022-08-03T00:09:51;2.20;;;1.57;;
49450;SDS011;35336;48.400;10.886;2022-08-03T00:10:07;3.53;;;1.80;;
49450;SDS011;35336;48.400;10.886;2022-08-03T00:10:23;4.07;;;1.77;;
49450;SDS011;35336;48.400;10.886;2022-08-03T00:10:38;2.87;;;1.67;;
49450;SDS011;35336;48.400;10.886;2022-08-03T00:10:53;2.72;;;1.75;;
49450;SDS011;35336;48.400;10.886;2022-08-03T00:11:09;3.10;;;1.73;;
49450;SDS011;35336;48.400;10.886;2022-08-03T00:11:24;4.05;;;1.73;;
49450;SDS011;35336;48.400;10.886;2022-08-03T00:11:40;3.90;;;1.73;;
49450;SDS011;35336;48.400;10.886;2022-08-03T00:11:55;3.17;;;1.67;;
49450;SDS011;35336;48.400;10.886;2022-08-03T00:12:11;5.17;;;1.57;;
49450;SDS011;35336;48.400;10.886;2022-08-03T00:12:26;5.88;;;1.70;;
49450;SDS011;35336;48.400;10.886;2022-08-03T00:12:42;4.17;;;1.80;;
49450;SDS011;35336;48.400;10.886;2022-08-03T00:12:57;3.08;;;1.63;;
49450;SDS011;35336;48.400;10.886;2022-08-03T00:13:13;2.90;;;1.60;;
49450;SDS011;35336;48.400;10.886;2022-08-03T00:13:28;3.15;;;1.88;;
49450;SDS011;35336;48.400;10.886;2022-08-03T00:13:44;5.47;;;2.27;;
49450;SDS011;35336;48.400;10.886;2022-08-03T00:13:59;4.57;;;1.98;;
49450;SDS011;35336;48.400;10.886;2022-08-03T00:14:15;3.80;;;1.60;;
49450;SDS011;35336;48.400;10.886;2022-08-03T00:14:30;6.47;;;2.10;;
49450;SDS011;35336;48.400;10.886;2022-08-03T00:14:46;6.00;;;2.35;;
49450;SDS011;35336;48.400;10.886;2022-08-03T00:15:01;3.43;;;2.17;;
49450;SDS011;35336;48.400;10.886;2022-08-03T00:15:17;2.83;;;1.95;;
49450;SDS011;35336;48.400;10.886;2022-08-03T00:15:33;3.22;;;1.70;;
49450;SDS011;35336;48.400;10.886;2022-08-03T00:15:48;3.80;;;1.75;;
49450;SDS011;35336;48.400;10.886;2022-08-03T00:16:04;3.20;;;1.83;;
49450;SDS011;35336;48.400;10.886;2022-08-03T00:16:19;3.35;;;1.88;;
49450;SDS011;35336;48.400;10.886;2022-08-03T00:16:35;4.53;;;1.80;;
49450;SDS011;35336;48.400;10.886;2022-08-03T00:16:50;4.07;;;1.70;;
49450;SDS011;35336;48.400;10.886;2022-08-03T00:17:06;2.60;;;1.70;;
49450;SDS011;35336;48.400;10.886;2022-08-03T00:17:21;2.37;;;1.60;;
49450;SDS011;35336;48.400;10.886;2022-08-03T00:17:37;2.38;;;1.70;;
49450;SDS011;35336;48.400;10.886;2022-08-03T00:17:52;2.70;;;1.97;;
49450;SDS011;35336;48.400;10.886;2022-08-03T00:18:08;2.53;;;1.80;;
49450;SDS011;35336;48.400;10.886;2022-08-03T00:18:23;2.38;;;1.80;;
49450;SDS011;35336;48.400;10.886;2022-08-03T00:18:39;2.50;;;1.90;;
49450;SDS011;35336;48.400;10.886;2022-08-03T00:18:54;3.13;;;1.88;;
49450;SDS011;35336;48.400;10.886;2022-08-03T00:19:10;3.33;;;2.07;;
49450;SDS011;35336;48.400;10.886;2022-08-03T00:19:25;4.00;;;1.97;;
49450;SDS011;35336;48.400;10.886;2022-08-03T00:19:41;3.10;;;1.70;;
49450;SDS011;35336;48.400;10.886;2022-08-03T00:19:57;2.23;;;1.40;;
49450;SDS011;35336;48.400;10.886;2022-08-03T00:20:12;2.80;;;1.50;;
49450;SDS011;35336;48.400;10.886;2022-08-03T00:20:28;4.15;;;1.80;;
49450;SDS011;35336;48.400;10.886;2022-08-03T00:20:43;6.60;;;1.90;;
49450;SDS011;35336;48.400;10.886;2022-08-03T00:20:59;5.30;;;1.92;;
49450;SDS011;35336;48.400;10.886;2022-08-03T00:21:14;2.57;;;1.77;;
49450;SDS011;35336;48.400;10.886;2022-08-03T00:21:29;2.58;;;1.70;;
49450;SDS011;35336;48.400;10.886;2022-08-03T00:21:45;3.70;;;1.70;;
49450;SDS011;35336;48.400;10.886;2022-08-03T00:22:00;3.50;;;1.70;;
49450;SDS011;35336;48.400;10.886;2022-08-03T00:22:16;2.30;;;1.70;;
49450;SDS011;35336;48.400;10.886;2022-08-03T00:22:33;2.03;;;1.70;;
49450;SDS011;35336;48.400;10.886;2022-08-03T00:22:49;2.17;;;1.85;;
49450;SDS011;35336;48.400;10.886;2022-08-03T00:23:04;5.70;;;2.23;;
49450;SDS011;35336;48.400;10.886;2022-08-03T00:23:20;5.50;;;2.13;;
49450;SDS011;35336;48.400;10.886;2022-08-03T00:23:36;3.72;;;1.92;;
49450;SDS011;35336;48.400;10.886;2022-08-03T00:23:52;4.85;;;2.00;;
49450;SDS011;35336;48.400;10.886;2022-08-03T00:24:07;4.60;;;1.80;;
49450;SDS011;35336;48.400;10.886;2022-08-03T00:24:23;3.40;;;1.80;;
49450;SDS011;35336;48.400;10.886;2022-08-03T00:24:38;2.70;;;1.90;;
49450;SDS011;35336;48.400;10.886;2022-08-03T00:24:54;2.60;;;1.88;;
49450;SDS011;35336;48.400;10.886;2022-08-03T00:25:09;4.30;;;1.90;;
49450;SDS011;35336;48.400;10.886;2022-08-03T00:25:25;4.25;;;1.90;;
49450;SDS011;35336;48.400;10.886;2022-08-03T00:25:40;2.10;;;1.80;;
49450;SDS011;35336;48.400;10.886;2022-08-03T00:25:56;2.10;;;1.80;;
49450;SDS011;35336;48.400;10.886;2022-08-03T00:26:12;3.72;;;1.95;;
49450;SDS011;35336;48.400;10.886;2022-08-03T00:26:27;3.93;;;2.00;;
49450;SDS011;35336;48.400;10.886;2022-08-03T00:26:43;3.67;;;2.08;;
49450;SDS011;35336;48.400;10.886;2022-08-03T00:26:59;6.47;;;2.10;;
49450;SDS011;35336;48.400;10.886;2022-08-03T00:27:14;5.17;;;2.00;;
49450;SDS011;35336;48.400;10.886;2022-08-03T00:27:30;2.10;;;1.80;;
49450;SDS011;35336;48.400;10.886;2022-08-03T00:27:45;1.97;;;1.50;;
49450;SDS011;35336;48.400;10.886;2022-08-03T00:28:01;1.97;;;1.50;;
49450;SDS011;35336;48.400;10.886;2022-08-03T00:28:17;3.03;;;1.58;;
49450;SDS011;35336;48.400;10.886;2022-08-03T00:28:35;3.13;;;1.65;;
49450;SDS011;35336;48.400;10.886;2022-08-03T00:28:50;3.37;;;1.83;;
49450;SDS011;35336;48.400;10.886;2022-08-03T00:29:06;2.92;;;1.75;;
49450;SDS011;35336;48.400;10.886;2022-08-03T00:29:21;2.53;;;1.70;;
49450;SDS011;35336;48.400;10.886;2022-08-03T00:29:37;2.88;;;1.95;;
49450;SDS011;35336;48.400;10.886;2022-08-03T00:29:52;3.10;;;2.00;;
49450;SDS011;35336;48.400;10.886;2022-08-03T00:30:08;3.70;;;1.90;;
49450;SDS011;35336;48.400;10.886;2022-08-03T00:30:23;4.97;;;1.95;;
49450;SDS011;35336;48.400;10.886;2022-08-03T00:30:39;4.93;;;1.98;;
49450;SDS011;35336;48.400;10.886;2022-08-03T00:30:54;2.87;;;1.67;;
49450;SDS011;35336;48.400;10.886;2022-08-03T00:31:10;2.95;;;1.60;;
49450;SDS011;35336;48.400;10.886;2022-08-03T00:31:25;3.50;;;1.90;;
49450;SDS011;35336;48.400;10.886;2022-08-03T00:31:41;2.88;;;1.98;;
49450;SDS011;35336;48.400;10.886;2022-08-03T00:31:56;3.07;;;1.70;;
49450;SDS011;35336;48.400;10.886;2022-08-03T00:32:12;4.17;;;1.73;;
49450;SDS011;35336;48.400;10.886;2022-08-03T00:32:27;4.20;;;1.80;;
49450;SDS011;35336;48.400;10.886;2022-08-03T00:32:43;2.80;;;1.70;;
49450;SDS011;35336;48.400;10.886;2022-08-03T00:32:58;3.15;;;1.63;;
49450;SDS011;35336;48.400;10.886;2022-08-03T00:33:14;3.80;;;1.63;;
49450;SDS011;35336;48.400;10.886;2022-08-03T00:33:31;3.75;;;1.77;;
49450;SDS011;35336;48.400;10.886;2022-08-03T00:33:46;4.97;;;1.83;;
49450;SDS011;35336;48.400;10.886;2022-08-03T00:34:02;4.10;;;1.73;;
49450;SDS011;35336;48.400;10.886;2022-08-03T00:34:17;2.70;;;1.83;;
49450;SDS011;35336;48.400;10.886;2022-08-03T00:34:33;3.63;;;1.83;;
49450;SDS011;35336;48.400;10.886;2022-08-03T00:34:48;4.53;;;1.90;;
49450;SDS011;35336;48.400;10.886;2022-08-03T00:35:04;4.63;;;2.07;;
49450;SDS011;35336;48.400;10.886;2022-08-03T00:35:20;4.20;;;1.90;;
49450;SDS011;35336;48.400;10.886;2022-08-03T00:35:36;2.87;;;1.63;;
49450;SDS011;35336;48.400;10.886;2022-08-03T00:35:51;2.55;;;1.75;;
49450;SDS011;35336;48.400;10.886;2022-08-03T00:36:07;4.53;;;1.80;;
49450;SDS011;35336;48.400;10.886;2022-08-03T00:36:22;5.00;;;1.77;;
49450;SDS011;35336;48.400;10.886;2022-08-03T00:36:38;3.40;;;1.80;;
49450;SDS011;35336;48.400;10.886;2022-08-03T00:36:54;3.00;;;1.70;;
49450;SDS011;35336;48.400;10.886;2022-08-03T00:37:09;4.15;;;1.80;;
49450;SDS011;35336;48.400;10.886;2022-08-03T00:37:24;5.70;;;2.03;;
49450;SDS011;35336;48.400;10.886;2022-08-03T00:37:40;5.40;;;1.95;;
49450;SDS011;35336;48.400;10.886;2022-08-03T00:37:56;5.40;;;1.87;;
49450;SDS011;35336;48.400;10.886;2022-08-03T00:38:12;4.05;;;1.75;;
49450;SDS011;35336;48.400;10.886;2022-08-03T00:38:28;3.90;;;1.87;;
49450;SDS011;35336;48.400;10.886;2022-08-03T00:38:43;5.00;;;1.92;;
49450;SDS011;35336;48.400;10.886;2022-08-03T00:38:59;6.63;;;2.20;;
49450;SDS011;35336;48.400;10.886;2022-08-03T00:39:14;5.90;;;2.15;;
49450;SDS011;35336;48.400;10.886;2022-08-03T00:39:29;2.77;;;1.90;;
49450;SDS011;35336;48.400;10.886;2022-08-03T00:39:45;2.60;;;1.87;;
49450;SDS011;35336;48.400;10.886;2022-08-03T00:40:01;3.53;;;1.80;;
49450;SDS011;35336;48.400;10.886;2022-08-03T00:40:18;4.05;;;1.90;;
49450;SDS011;35336;48.400;10.886;2022-08-03T00:40:34;4.57;;;2.17;;
49450;SDS011;35336;48.400;10.886;2022-08-03T00:40:49;6.88;;;2.08;;
49450;SDS011;35336;48.400;10.886;2022-08-03T00:41:05;5.35;;;1.88;;
49450;SDS011;35336;48.400;10.886;2022-08-03T00:41:21;2.77;;;1.77;;
49450;SDS011;35336;48.400;10.886;2022-08-03T00:41:36;3.53;;;1.88;;
49450;SDS011;35336;48.400;10.886;2022-08-03T00:41:52;6.47;;;1.87;;
49450;SDS011;35336;48.400;10.886;2022-08-03T00:42:07;5.97;;;1.77;;
49450;SDS011;35336;48.400;10.886;2022-08-03T00:42:23;2.87;;;1.60;;
49450;SDS011;35336;48.400;10.886;2022-08-03T00:42:48;3.92;;;1.60;;
49450;SDS011;35336;48.400;10.886;2022-08-03T00:43:05;3.90;;;1.73;;
49450;SDS011;35336;48.400;10.886;2022-08-03T00:43:24;2.38;;;1.63;;
49450;SDS011;35336;48.400;10.886;2022-08-03T00:43:41;3.22;;;1.90;;
49450;SDS011;35336;48.400;10.886;2022-08-03T00:43:57;4.70;;;1.83;;
49450;SDS011;35336;48.400;10.886;2022-08-03T00:44:12;3.73;;;1.70;;
49450;SDS011;35336;48.400;10.886;2022-08-03T00:44:27;3.90;;;1.80;;
49450;SDS011;35336;48.400;10.886;2022-08-03T00:44:43;4.90;;;1.93;;
49450;SDS011;35336;48.400;10.886;2022-08-03T00:44:59;4.05;;;2.08;;
49450;SDS011;35336;48.400;10.886;2022-08-03T00:45:14;3.42;;;1.88;;
49450;SDS011;35336;48.400;10.886;2022-08-03T00:45:34;3.40;;;1.65;;
49450;SDS011;35336;48.400;10.886;2022-08-03T00:45:52;2.95;;;1.77;;
49450;SDS011;35336;48.400;10.886;2022-08-03T00:46:08;2.00;;;1.65;;
49450;SDS011;35336;48.400;10.886;2022-08-03T00:46:24;2.60;;;1.50;;
49450;SDS011;35336;48.400;10.886;2022-08-03T00:46:39;3.10;;;1.47;;
49450;SDS011;35336;48.400;10.886;2022-08-03T00:46:54;3.70;;;1.80;;
49450;SDS011;35336;48.400;10.886;2022-08-03T00:47:10;3.80;;;2.00;;
49450;SDS011;35336;48.400;10.886;2022-08-03T00:47:26;3.92;;;1.80;;
49450;SDS011;35336;48.400;10.886;2022-08-03T00:47:41;3.60;;;1.73;;
49450;SDS011;35336;48.400;10.886;2022-08-03T00:47:57;3.87;;;1.70;;
49450;SDS011;35336;48.400;10.886;2022-08-03T00:48:15;6.43;;;2.28;;
49450;SDS011;35336;48.400;10.886;2022-08-03T00:48:31;5.40;;;2.40;;
49450;SDS011;35336;48.400;10.886;2022-08-03T00:48:47;3.83;;;1.90;;
49450;SDS011;35336;48.400;10.886;2022-08-03T00:49:03;4.03;;;1.80;;
49450;SDS011;35336;48.400;10.886;2022-08-03T00:49:18;5.73;;;1.67;;
49450;SDS011;35336;48.400;10.886;2022-08-03T00:49:34;4.57;;;1.67;;
49450;SDS011;35336;48.400;10.886;2022-08-03T00:49:50;2.50;;;1.63;;
49450;SDS011;35336;48.400;10.886;2022-08-03T00:50:06;3.70;;;2.10;;
49450;SDS011;35336;48.400;10.886;2022-08-03T00:50:23;3.88;;;1.95;;
49450;SDS011;35336;48.400;10.886;2022-08-03T00:50:41;4.88;;;1.67;;
49450;SDS011;35336;48.400;10.886;2022-08-03T00:50:57;3.40;;;1.52;;
49450;SDS011;35336;48.400;10.886;2022-08-03T00:51:12;2.97;;;1.40;;
49450;SDS011;35336;48.400;10.886;2022-08-03T00:51:28;3.10;;;1.53;;
49450;SDS011;35336;48.400;10.886;2022-08-03T00:51:43;3.17;;;1.63;;
49450;SDS011;35336;48.400;10.886;2022-08-03T00:51:59;5.47;;;1.77;;
49450;SDS011;35336;48.400;10.886;2022-08-03T00:52:15;6.72;;;2.00;;
49450;SDS011;35336;48.400;10.886;2022-08-03T00:52:31;4.90;;;1.93;;
49450;SDS011;35336;48.400;10.886;2022-08-03T00:52:46;5.57;;;1.90;;
49450;SDS011;35336;48.400;10.886;2022-08-03T00:53:03;4.93;;;1.73;;
49450;SDS011;35336;48.400;10.886;2022-08-03T00:53:20;4.28;;;1.67;;
49450;SDS011;35336;48.400;10.886;2022-08-03T00:53:35;4.65;;;1.63;;
49450;SDS011;35336;48.400;10.886;2022-08-03T00:53:51;3.27;;;1.63;;
49450;SDS011;35336;48.400;10.886;2022-08-03T00:54:06;4.13;;;1.80;;
49450;SDS011;35336;48.400;10.886;2022-08-03T00:54:22;3.70;;;1.77;;
49450;SDS011;35336;48.400;10.886;2022-08-03T00:54:39;2.17;;;1.73;;
49450;SDS011;35336;48.400;10.886;2022-08-03T00:54:54;2.43;;;1.60;;
49450;SDS011;35336;48.400;10.886;2022-08-03T00:55:10;1.92;;;1.45;;
49450;SDS011;35336;48.400;10.886;2022-08-03T00:55:26;4.80;;;1.90;;
49450;SDS011;35336;48.400;10.886;2022-08-03T00:55:42;5.30;;;2.13;;
49450;SDS011;35336;48.400;10.886;2022-08-03T00:55:58;3.67;;;1.88;;
49450;SDS011;35336;48.400;10.886;2022-08-03T00:56:14;5.13;;;1.73;;
49450;SDS011;35336;48.400;10.886;2022-08-03T00:56:31;4.85;;;1.52;;
49450;SDS011;35336;48.400;10.886;2022-08-03T00:56:46;4.60;;;1.73;;
49450;SDS011;35336;48.400;10.886;2022-08-03T00:57:02;3.13;;;1.80;;
49450;SDS011;35336;48.400;10.886;2022-08-03T00:57:18;3.25;;;1.50;;
49450;SDS011;35336;48.400;10.886;2022-08-03T00:57:33;3.03;;;1.60;;
49450;SDS011;35336;48.400;10.886;2022-08-03T00:57:49;3.70;;;1.70;;
49450;SDS011;35336;48.400;10.886;2022-08-03T00:58:06;3.97;;;1.65;;
49450;SDS011;35336;48.400;10.886;2022-08-03T00:58:22;4.05;;;1.70;;
49450;SDS011;35336;48.400;10.886;2022-08-03T00:58:38;3.53;;;1.80;;
49450;SDS011;35336;48.400;10.886;2022-08-03T00:58:53;2.30;;;1.70;;
49450;SDS011;35336;48.400;10.886;2022-08-03T00:59:13;1.98;;;1.58;;
49450;SDS011;35336;48.400;10.886;2022-08-03T00:59:29;2.67;;;1.40;;
49450;SDS011;35336;48.400;10.886;2022-08-03T00:59:45;3.28;;;1.50;;
49450;SDS011;35336;48.400;10.886;2022-08-03T01:00:00;2.83;;;1.50;;
49450;SDS011;35336;48.400;10.886;2022-08-03T01:00:20;2.50;;;1.60;;
49450;SDS011;35336;48.400;10.886;2022-08-03T01:00:38;3.17;;;1.60;;
49450;SDS011;35336;48.400;10.886;2022-08-03T01:00:56;3.92;;;1.52;;
49450;SDS011;35336;48.400;10.886;2022-08-03T01:01:12;3.22;;;1.65;;
49450;SDS011;35336;48.400;10.886;2022-08-03T01:01:28;2.60;;;1.58;;
49450;SDS011;35336;48.400;10.886;2022-08-03T01:01:43;2.83;;;1.57;;
49450;SDS011;35336;48.400;10.886;2022-08-03T01:01:59;2.45;;;1.58;;
49450;SDS011;35336;48.400;10.886;2022-08-03T01:02:14;2.07;;;1.50;;
49450;SDS011;35336;48.400;10.886;2022-08-03T01:02:30;2.20;;;1.50;;
49450;SDS011;35336;48.400;10.886;2022-08-03T01:02:45;2.45;;;1.55;;
49450;SDS011;35336;48.400;10.886;2022-08-03T01:03:01;3.70;;;1.90;;
49450;SDS011;35336;48.400;10.886;2022-08-03T01:03:17;4.57;;;1.90;;
49450;SDS011;35336;48.400;10.886;2022-08-03T01:03:32;3.20;;;1.60;;
49450;SDS011;35336;48.400;10.886;2022-08-03T01:03:48;3.10;;;1.50;;
49450;SDS011;35336;48.400;10.886;2022-08-03T01:04:03;4.32;;;1.42;;
49450;SDS011;35336;48.400;10.886;2022-08-03T01:04:19;6.00;;;1.40;;
49450;SDS011;35336;48.400;10.886;2022-08-03T01:04:34;5.33;;;1.40;;
49450;SDS011;35336;48.400;10.886;2022-08-03T01:04:50;4.85;;;1.50;;
49450;SDS011;35336;48.400;10.886;2022-08-03T01:05:06;4.97;;;1.53;;
49450;SDS011;35336;48.400;10.886;2022-08-03T01:05:22;2.55;;;1.40;;
49450;SDS011;35336;48.400;10.886;2022-08-03T01:05:48;3.80;;;1.90;;
49450;SDS011;35336;48.400;10.886;2022-08-03T01:06:16;5.38;;;1.70;;
49450;SDS011;35336;48.400;10.886;2022-08-03T01:07:01;4.43;;;1.90;;
49450;SDS011;35336;48.400;10.886;2022-08-03T01:07:45;2.10;;;1.40;;
49450;SDS011;35336;48.400;10.886;2022-08-03T01:08:05;2.50;;;1.50;;
49450;SDS011;35336;48.400;10.886;2022-08-03T01:08:45;3.88;;;1.67;;
49450;SDS011;35336;48.400;10.886;2022-08-03T01:09:17;4.15;;;1.40;;
49450;SDS011;35336;48.400;10.886;2022-08-03T01:10:59;3.72;;;1.50;;
49450;SDS011;35336;48.400;10.886;2022-08-03T01:11:39;3.72;;;1.50;;
49450;SDS011;35336;48.400;10.886;2022-08-03T01:12:14;3.80;;;1.70;;
49450;SDS011;35336;48.400;10.886;2022-08-03T01:13:20;4.00;;;1.40;;
49450;SDS011;35336;48.400;10.886;2022-08-03T01:13:56;4.43;;;1.60;;
49450;SDS011;35336;48.400;10.886;2022-08-03T01:14:20;4.25;;;1.75;;
49450;SDS011;35336;48.400;10.886;2022-08-03T01:14:49;1.77;;;1.40;;
49450;SDS011;35336;48.400;10.886;2022-08-03T01:16:05;3.17;;;1.38;;
49450;SDS011;35336;48.400;10.886;2022-08-03T01:16:29;3.53;;;1.42;;
49450;SDS011;35336;48.400;10.886;2022-08-03T01:16:58;2.60;;;1.23;;
49450;SDS011;35336;48.400;10.886;2022-08-03T01:17:24;2.17;;;1.45;;
49450;SDS011;35336;48.400;10.886;2022-08-03T01:17:48;3.70;;;1.90;;
49450;SDS011;35336;48.400;10.886;2022-08-03T01:19:28;4.47;;;1.75;;
49450;SDS011;35336;48.400;10.886;2022-08-03T01:20:06;5.18;;;1.50;;
49450;SDS011;35336;48.400;10.886;2022-08-03T01:20:25;5.20;;;1.45;;
49450;SDS011;35336;48.400;10.886;2022-08-03T01:20:47;3.97;;;1.60;;
49450;SDS011;35336;48.400;10.886;2022-08-03T01:21:11;3.28;;;1.50;;
49450;SDS011;35336;48.400;10.886;2022-08-03T01:21:53;3.13;;;1.70;;
49450;SDS011;35336;48.400;10.886;2022-08-03T01:24:03;2.70;;;1.42;;
49450;SDS011;35336;48.400;10.886;2022-08-03T01:26:02;2.97;;;1.50;;
49450;SDS011;35336;48.400;10.886;2022-08-03T01:27:18;2.17;;;1.50;;
49450;SDS011;35336;48.400;10.886;2022-08-03T01:28:19;3.80;;;1.42;;
49450;SDS011;35336;48.400;10.886;2022-08-03T01:30:19;4.30;;;1.60;;
49450;SDS011;35336;48.400;10.886;2022-08-03T01:30:38;3.08;;;1.35;;
49450;SDS011;35336;48.400;10.886;2022-08-03T01:30:58;2.88;;;1.40;;
49450;SDS011;35336;48.400;10.886;2022-08-03T01:31:21;2.40;;;1.55;;
49450;SDS011;35336;48.400;10.886;2022-08-03T01:31:42;3.53;;;1.60;;
49450;SDS011;35336;48.400;10.886;2022-08-03T01:32:06;3.63;;;1.52;;
49450;SDS011;35336;48.400;10.886;2022-08-03T01:32:27;5.35;;;1.80;;
49450;SDS011;35336;48.400;10.886;2022-08-03T01:32:54;3.22;;;1.65;;
49450;SDS011;35336;48.400;10.886;2022-08-03T01:33:16;4.03;;;1.60;;
49450;SDS011;35336;48.400;10.886;2022-08-03T01:33:40;5.72;;;1.63;;
49450;SDS011;35336;48.400;10.886;2022-08-03T01:33:59;3.90;;;1.55;;
49450;SDS011;35336;48.400;10.886;2022-08-03T01:34:16;2.70;;;1.60;;
49450;SDS011;35336;48.400;10.886;2022-08-03T01:34:35;2.30;;;1.58;;
49450;SDS011;35336;48.400;10.886;2022-08-03T01:35:12;3.20;;;1.65;;
49450;SDS011;35336;48.400;10.886;2022-08-03T01:35:38;2.53;;;1.50;;
49450;SDS011;35336;48.400;10.886;2022-08-03T01:35:59;1.52;;;1.30;;
49450;SDS011;35336;48.400;10.886;2022-08-03T01:36:21;3.08;;;1.48;;
49450;SDS011;35336;48.400;10.886;2022-08-03T01:36:40;3.38;;;1.27;;
49450;SDS011;35336;48.400;10.886;2022-08-03T01:36:58;4.07;;;1.40;;
49450;SDS011;35336;48.400;10.886;2022-08-03T01:37:19;2.30;;;1.60;;
49450;SDS011;35336;48.400;10.886;2022-08-03T01:38:01;2.53;;;1.50;;
49450;SDS011;35336;48.400;10.886;2022-08-03T01:38:21;2.28;;;1.50;;
49450;SDS011;35336;48.400;10.886;2022-08-03T01:38:43;2.55;;;1.63;;
49450;SDS011;35336;48.400;10.886;2022-08-03T01:39:04;3.60;;;1.50;;
49450;SDS011;35336;48.400;10.886;2022-08-03T01:39:23;2.38;;;1.40;;
49450;SDS011;35336;48.400;10.886;2022-08-03T01:39:41;3.60;;;1.35;;
49450;SDS011;35336;48.400;10.886;2022-08-03T01:39:59;3.42;;;1.40;;
49450;SDS011;35336;48.400;10.886;2022-08-03T01:40:18;2.90;;;1.48;;
49450;SDS011;35336;48.400;10.886;2022-08-03T01:40:36;3.75;;;1.60;;
49450;SDS011;35336;48.400;10.886;2022-08-03T01:40:53;4.10;;;1.58;;
49450;SDS011;35336;48.400;10.886;2022-08-03T01:41:11;3.92;;;1.70;;
49450;SDS011;35336;48.400;10.886;2022-08-03T01:41:30;3.22;;;1.90;;
49450;SDS011;35336;48.400;10.886;2022-08-03T01:41:55;2.33;;;1.60;;
49450;SDS011;35336;48.400;10.886;2022-08-03T01:42:13;2.80;;;1.50;;
49450;SDS011;35336;48.400;10.886;2022-08-03T01:42:32;4.20;;;1.50;;
49450;SDS011;35336;48.400;10.886;2022-08-03T01:42:49;2.45;;;1.40;;
49450;SDS011;35336;48.400;10.886;2022-08-03T01:43:06;2.78;;;1.60;;
49450;SDS011;35336;48.400;10.886;2022-08-03T01:43:26;3.75;;;1.70;;
49450;SDS011;35336;48.400;10.886;2022-08-03T01:43:43;3.45;;;1.75;;
49450;SDS011;35336;48.400;10.886;2022-08-03T01:44:05;3.75;;;1.75;;
49450;SDS011;35336;48.400;10.886;2022-08-03T01:44:23;3.75;;;1.75;;
49450;SDS011;35336;48.400;10.886;2022-08-03T01:44:41;2.50;;;1.58;;
49450;SDS011;35336;48.400;10.886;2022-08-03T01:44:59;4.80;;;1.70;;
49450;SDS011;35336;48.400;10.886;2022-08-03T01:45:17;5.75;;;1.75;;
49450;SDS011;35336;48.400;10.886;2022-08-03T01:45:34;3.08;;;1.65;;
49450;SDS011;35336;48.400;10.886;2022-08-03T01:45:51;2.00;;;1.60;;
49450;SDS011;35336;48.400;10.886;2022-08-03T01:46:09;2.28;;;1.60;;
49450;SDS011;35336;48.400;10.886;2022-08-03T01:46:26;3.47;;;1.70;;
49450;SDS011;35336;48.400;10.886;2022-08-03T01:46:42;3.45;;;1.60;;
49450;SDS011;35336;48.400;10.886;2022-08-03T01:46:59;3.25;;;1.60;;
49450;SDS011;35336;48.400;10.886;2022-08-03T01:47:16;3.13;;;1.52;;
49450;SDS011;35336;48.400;10.886;2022-08-03T01:47:35;2.30;;;1.60;;
49450;SDS011;35336;48.400;10.886;2022-08-03T01:47:52;1.90;;;1.50;;
49450;SDS011;35336;48.400;10.886;2022-08-03T01:48:10;2.60;;;1.40;;
49450;SDS011;35336;48.400;10.886;2022-08-03T01:48:29;3.28;;;1.60;;
49450;SDS011;35336;48.400;10.886;2022-08-03T01:48:46;4.55;;;1.35;;
49450;SDS011;35336;48.400;10.886;2022-08-03T01:49:02;5.47;;;1.42;;
49450;SDS011;35336;48.400;10.886;2022-08-03T01:49:21;4.43;;;1.70;;
49450;SDS011;35336;48.400;10.886;2022-08-03T01:49:38;2.17;;;1.55;;
49450;SDS011;35336;48.400;10.886;2022-08-03T01:49:57;3.70;;;1.60;;
49450;SDS011;35336;48.400;10.886;2022-08-03T01:50:15;3.28;;;1.52;;
49450;SDS011;35336;48.400;10.886;2022-08-03T01:50:35;2.00;;;1.40;;
49450;SDS011;35336;48.400;10.886;2022-08-03T01:50:51;2.30;;;1.47;;
49450;SDS011;35336;48.400;10.886;2022-08-03T01:51:09;2.47;;;1.60;;
49450;SDS011;35336;48.400;10.886;2022-08-03T01:51:26;4.22;;;1.70;;
49450;SDS011;35336;48.400;10.886;2022-08-03T01:51:44;5.20;;;1.70;;
49450;SDS011;35336;48.400;10.886;2022-08-03T01:52:01;5.50;;;2.97;;
49450;SDS011;35336;48.400;10.886;2022-08-03T01:52:18;6.82;;;5.38;;
49450;SDS011;35336;48.400;10.886;2022-08-03T01:52:36;13.57;;;8.15;;
49450;SDS011;35336;48.400;10.886;2022-08-03T01:52:55;9.52;;;6.55;;
49450;SDS011;35336;48.400;10.886;2022-08-03T01:53:13;6.15;;;5.43;;
49450;SDS011;35336;48.400;10.886;2022-08-03T01:53:31;12.27;;;9.90;;
49450;SDS011;35336;48.400;10.886;2022-08-03T01:53:49;13.20;;;10.25;;
49450;SDS011;35336;48.400;10.886;2022-08-03T01:54:06;10.05;;;8.98;;
49450;SDS011;35336;48.400;10.886;2022-08-03T01:54:24;7.78;;;6.97;;
49450;SDS011;35336;48.400;10.886;2022-08-03T01:54:42;5.43;;;4.78;;
49450;SDS011;35336;48.400;10.886;2022-08-03T01:54:59;4.65;;;3.65;;
49450;SDS011;35336;48.400;10.886;2022-08-03T01:55:17;5.32;;;2.28;;
49450;SDS011;35336;48.400;10.886;2022-08-03T01:55:34;3.83;;;1.80;;